createdAt,value
2022-10-10T00:01:13.292Z,46.80
2022-10-10T00:03:40.565Z,46.60
2022-10-10T00:06:08.272Z,46.60
2022-10-10T00:08:36.479Z,46.40
2022-10-10T00:11:03.756Z,46.30
2022-10-10T00:13:30.861Z,46.40
2022-10-10T00:15:57.692Z,46.30
2022-10-10T00:18:24.478Z,46.40
2022-10-10T00:20:51.462Z,46.30
2022-10-10T00:23:18.408Z,46.20
2022-10-10T00:25:46.567Z,46.20
2022-10-10T00:28:13.342Z,46.20
2022-10-10T00:30:40.429Z,46.20
2022-10-10T00:33:07.189Z,46.10
2022-10-10T00:35:34.085Z,46.10
2022-10-10T00:38:00.894Z,46.20
2022-10-10T00:40:28.466Z,46.10
2022-10-10T00:42:56.739Z,46.20
2022-10-10T00:45:32.135Z,46.10
2022-10-10T00:48:04.375Z,46.20
2022-10-10T00:50:33.362Z,46.40
2022-10-10T00:53:00.740Z,46.20
2022-10-10T00:55:27.785Z,46.40
2022-10-10T00:57:56.012Z,46.20
2022-10-10T01:00:22.792Z,46.20
2022-10-10T01:02:49.829Z,46.20
2022-10-10T01:05:17.311Z,46.10
2022-10-10T01:07:45.249Z,46.20
2022-10-10T01:10:15.466Z,46.30
2022-10-10T01:13:03.959Z,46.20
2022-10-10T01:15:46.164Z,46.10
2022-10-10T01:18:21.830Z,46.20
2022-10-10T01:20:58.245Z,46.30
2022-10-10T01:23:51.256Z,46.40
2022-10-10T01:26:51.981Z,46.50
2022-10-10T01:29:28.767Z,46.70
2022-10-10T01:32:00.479Z,46.80
2022-10-10T01:34:33.260Z,46.60
2022-10-10T01:37:06.953Z,46.80
2022-10-10T01:39:42.494Z,46.80
2022-10-10T01:42:14.320Z,46.60
2022-10-10T01:44:45.866Z,47.20
2022-10-10T01:47:13.341Z,46.90
2022-10-10T01:49:42.581Z,46.80
2022-10-10T01:52:20.967Z,46.90
2022-10-10T01:54:53.681Z,46.90
2022-10-10T01:57:25.729Z,46.70
2022-10-10T02:00:01.475Z,47.60
2022-10-10T02:02:38.046Z,46.90
2022-10-10T02:05:10.487Z,46.90
2022-10-10T02:07:43.182Z,46.60
2022-10-10T02:10:11.482Z,46.60
2022-10-10T02:12:39.342Z,46.70
2022-10-10T02:15:12.030Z,46.70
2022-10-10T02:17:40.359Z,46.60
2022-10-10T02:20:11.074Z,46.70
2022-10-10T02:22:39.742Z,46.70
2022-10-10T02:25:07.576Z,46.60
2022-10-10T02:27:40.582Z,46.50
2022-10-10T02:30:10.636Z,46.60
2022-10-10T02:32:42.639Z,46.40
2022-10-10T02:35:16.671Z,46.50
2022-10-10T02:37:45.488Z,46.60
2022-10-10T02:40:16.965Z,46.60
2022-10-10T02:42:46.111Z,46.50
2022-10-10T02:45:14.609Z,46.60
2022-10-10T02:47:41.435Z,46.50
2022-10-10T02:50:08.919Z,46.60
2022-10-10T02:52:35.854Z,46.60
2022-10-10T02:55:03.187Z,46.60
2022-10-10T02:57:29.946Z,46.50
2022-10-10T02:59:56.716Z,46.70
2022-10-10T03:02:24.831Z,46.50
2022-10-10T03:04:51.553Z,46.50
2022-10-10T03:07:18.284Z,46.30
2022-10-10T03:09:45.054Z,46.40
2022-10-10T03:12:11.762Z,46.30
2022-10-10T03:14:38.512Z,46.40
2022-10-10T03:17:05.246Z,46.30
2022-10-10T03:19:33.465Z,46.30
2022-10-10T03:22:00.204Z,46.20
2022-10-10T03:24:27.308Z,46.30
2022-10-10T03:26:54.134Z,46.30
2022-10-10T03:29:20.933Z,46.20
2022-10-10T03:31:47.699Z,46.20
2022-10-10T03:34:14.515Z,46.50
2022-10-10T03:36:42.605Z,46.40
2022-10-10T03:39:09.509Z,46.30
2022-10-10T03:41:36.446Z,46.30
2022-10-10T03:44:03.430Z,46.30
2022-10-10T03:46:30.231Z,46.10
2022-10-10T03:48:56.978Z,46.40
2022-10-10T03:51:23.702Z,46.20
2022-10-10T03:53:51.817Z,46.30
2022-10-10T03:56:18.614Z,46.20
2022-10-10T03:58:45.362Z,46.00
2022-10-10T04:01:12.315Z,46.00
2022-10-10T04:03:39.124Z,45.80
2022-10-10T04:06:06.335Z,45.90
2022-10-10T04:08:33.070Z,45.90
2022-10-10T04:11:01.208Z,45.80
2022-10-10T04:13:27.973Z,46.20
2022-10-10T04:15:56.296Z,46.10
2022-10-10T04:18:23.525Z,46.10
2022-10-10T04:20:50.357Z,46.90
2022-10-10T04:23:17.111Z,46.20
2022-10-10T04:25:44.290Z,46.10
2022-10-10T04:28:14.020Z,45.90
2022-10-10T04:30:41.082Z,45.80
2022-10-10T04:33:07.965Z,45.80
2022-10-10T04:35:36.587Z,45.90
2022-10-10T04:38:04.136Z,45.80
2022-10-10T04:40:30.819Z,45.80
2022-10-10T04:42:57.698Z,46.00
2022-10-10T04:45:25.925Z,46.30
2022-10-10T04:47:52.995Z,46.30
2022-10-10T04:50:20.034Z,46.50
2022-10-10T04:52:46.795Z,46.20
2022-10-10T04:55:13.534Z,46.00
2022-10-10T04:57:40.247Z,46.00
2022-10-10T05:00:08.241Z,46.30
2022-10-10T05:02:36.373Z,46.20
2022-10-10T05:05:03.497Z,46.30
2022-10-10T05:07:30.287Z,46.20
2022-10-10T05:09:57.042Z,46.10
2022-10-10T05:12:23.774Z,46.00
2022-10-10T05:14:50.558Z,46.10
2022-10-10T05:17:17.329Z,46.20
2022-10-10T05:19:45.603Z,46.40
2022-10-10T05:22:12.384Z,46.50
2022-10-10T05:24:39.285Z,46.50
2022-10-10T05:27:06.069Z,46.40
2022-10-10T05:29:32.814Z,46.30
2022-10-10T05:31:59.575Z,46.40
2022-10-10T05:34:26.601Z,46.50
2022-10-10T05:36:54.691Z,46.40
2022-10-10T05:39:21.430Z,46.50
2022-10-10T05:41:48.185Z,46.60
2022-10-10T05:44:14.893Z,46.50
2022-10-10T05:46:41.658Z,46.30
2022-10-10T05:49:08.432Z,46.20
2022-10-10T05:51:35.179Z,46.30
2022-10-10T05:54:03.473Z,46.40
2022-10-10T05:56:30.158Z,46.40
2022-10-10T05:58:56.901Z,46.40
2022-10-10T06:01:23.616Z,46.20
2022-10-10T06:03:50.307Z,46.30
2022-10-10T06:06:27.763Z,46.20
2022-10-10T06:08:54.537Z,46.40
2022-10-10T06:11:22.652Z,46.70
2022-10-10T06:13:49.823Z,46.60
2022-10-10T06:16:16.636Z,46.20
2022-10-10T06:18:43.691Z,46.30
2022-10-10T06:21:12.282Z,46.40
2022-10-10T06:23:39.368Z,46.40
2022-10-10T06:26:06.168Z,46.60
2022-10-10T06:28:34.679Z,46.50
2022-10-10T06:31:03.402Z,46.70
2022-10-10T06:33:30.451Z,46.80
2022-10-10T06:35:57.294Z,47.00
2022-10-10T06:38:24.116Z,47.50
2022-10-10T06:40:51.143Z,47.40
2022-10-10T06:43:18.256Z,47.60
2022-10-10T06:45:50.083Z,47.70
2022-10-10T06:48:19.740Z,47.80
2022-10-10T06:50:57.175Z,47.90
2022-10-10T06:53:24.144Z,48.10
2022-10-10T06:55:52.664Z,47.90
2022-10-10T06:58:19.504Z,47.90
2022-10-10T07:00:53.908Z,48.20
2022-10-10T07:03:22.218Z,48.40
2022-10-10T07:05:50.955Z,48.40
2022-10-10T07:08:22.319Z,48.20
2022-10-10T07:10:49.373Z,48.60
2022-10-10T07:13:16.391Z,48.80
2022-10-10T07:15:43.830Z,48.70
2022-10-10T07:18:12.228Z,48.30
2022-10-10T07:20:40.043Z,49.00
2022-10-10T07:23:06.812Z,49.10
2022-10-10T07:25:33.566Z,48.90
2022-10-10T07:28:00.366Z,48.70
2022-10-10T07:30:27.248Z,48.70
2022-10-10T07:32:54.344Z,48.70
2022-10-10T07:35:23.626Z,48.60
2022-10-10T07:37:56.410Z,48.70
2022-10-10T07:40:24.009Z,48.80
2022-10-10T07:42:51.060Z,48.80
2022-10-10T07:45:18.153Z,48.90
2022-10-10T07:47:44.955Z,48.90
2022-10-10T07:50:12.638Z,48.80
2022-10-10T07:52:41.075Z,49.00
2022-10-10T07:55:09.386Z,48.70
2022-10-10T07:57:36.777Z,48.80
2022-10-10T08:00:07.193Z,48.90
2022-10-10T08:02:34.216Z,49.20
2022-10-10T08:05:01.017Z,49.00
2022-10-10T08:07:28.321Z,49.10
2022-10-10T08:09:56.514Z,48.80
2022-10-10T08:12:23.430Z,48.90
2022-10-10T08:14:50.171Z,48.70
2022-10-10T08:17:16.967Z,49.00
2022-10-10T08:19:43.731Z,48.70
2022-10-10T08:22:10.539Z,48.40
2022-10-10T08:24:37.468Z,48.30
2022-10-10T08:27:05.636Z,48.10
2022-10-10T08:29:32.914Z,48.20
2022-10-10T08:31:59.638Z,48.10
2022-10-10T08:34:26.455Z,48.30
2022-10-10T08:36:53.227Z,48.50
2022-10-10T08:39:19.985Z,48.20
2022-10-10T08:41:51.119Z,48.30
2022-10-10T08:44:25.014Z,48.40
2022-10-10T08:46:56.613Z,48.60
2022-10-10T08:49:27.301Z,48.70
2022-10-10T08:52:03.013Z,48.80
2022-10-10T08:54:32.286Z,48.80
2022-10-10T08:57:00.777Z,48.80
2022-10-10T08:59:33.913Z,49.00
2022-10-10T09:02:23.467Z,49.10
2022-10-10T09:04:53.140Z,49.20
2022-10-10T09:07:33.575Z,49.30
2022-10-10T09:10:09.650Z,49.50
2022-10-10T09:12:46.112Z,49.60
2022-10-10T09:15:19.792Z,49.40
2022-10-10T09:17:54.632Z,49.50
2022-10-10T09:20:37.982Z,49.40
2022-10-10T09:23:12.854Z,49.20
2022-10-10T09:25:43.839Z,49.30
2022-10-10T09:28:16.625Z,49.50
2022-10-10T09:30:48.695Z,49.30
2022-10-10T09:33:26.399Z,49.30
2022-10-10T09:35:54.954Z,49.50
2022-10-10T09:38:30.153Z,49.10
2022-10-10T09:41:01.458Z,48.80
2022-10-10T09:43:31.972Z,49.00
2022-10-10T09:46:00.527Z,49.20
2022-10-10T09:48:31.385Z,49.00
2022-10-10T09:50:59.181Z,48.90
2022-10-10T09:53:26.313Z,49.00
2022-10-10T09:55:54.043Z,47.80
2022-10-10T09:58:27.661Z,48.10
2022-10-10T10:00:54.574Z,47.70
2022-10-10T10:03:23.007Z,48.60
2022-10-10T10:05:58.922Z,48.30
2022-10-10T10:08:28.395Z,47.30
2022-10-10T10:10:55.558Z,48.30
2022-10-10T10:13:26.528Z,47.80
2022-10-10T10:16:05.044Z,46.90
2022-10-10T10:18:39.087Z,46.70
2022-10-10T10:21:13.480Z,46.70
2022-10-10T10:23:43.421Z,45.20
2022-10-10T10:26:19.113Z,45.40
2022-10-10T10:28:47.045Z,46.90
2022-10-10T10:31:34.093Z,46.00
2022-10-10T10:34:12.858Z,46.00
2022-10-10T10:36:50.024Z,45.50
2022-10-10T10:39:33.362Z,44.70
2022-10-10T10:42:10.892Z,44.90
2022-10-10T10:44:46.029Z,45.00
2022-10-10T10:50:26.182Z,43.90
2022-10-10T10:52:59.604Z,44.70
2022-10-10T10:55:35.802Z,44.40
2022-10-10T11:01:38.316Z,44.10
2022-10-10T11:05:23.462Z,45.00
2022-10-10T11:07:18.996Z,44.40
2022-10-10T11:09:52.894Z,44.80
2022-10-10T11:12:46.577Z,44.50
2022-10-10T11:15:17.809Z,44.00
2022-10-10T11:17:52.755Z,44.30
2022-10-10T11:20:25.370Z,44.00
2022-10-10T11:22:59.119Z,44.20
2022-10-10T11:25:29.555Z,44.30
2022-10-10T11:28:02.671Z,44.40
2022-10-10T11:30:33.389Z,44.20
2022-10-10T11:33:05.781Z,44.30
2022-10-10T11:35:36.866Z,44.10
2022-10-10T11:38:14.912Z,43.40
2022-10-10T11:40:52.858Z,43.80
2022-10-10T11:43:28.506Z,43.10
2022-10-10T11:46:03.314Z,44.10
2022-10-10T11:48:39.998Z,44.00
2022-10-10T11:51:16.858Z,43.90
2022-10-10T11:53:47.967Z,43.30
2022-10-10T11:56:21.710Z,43.10
2022-10-10T11:58:53.184Z,43.00
2022-10-10T12:01:25.317Z,43.80
2022-10-10T12:03:52.068Z,42.60
2022-10-10T12:06:23.963Z,41.30
2022-10-10T12:08:58.040Z,41.90
2022-10-10T12:11:29.927Z,41.70
2022-10-10T12:13:58.885Z,41.30
2022-10-10T12:16:30.731Z,41.60
2022-10-10T12:19:02.438Z,41.10
2022-10-10T12:21:30.525Z,40.40
2022-10-10T12:24:05.287Z,40.60
2022-10-10T12:27:29.066Z,39.80
2022-10-10T12:30:16.975Z,40.40
2022-10-10T12:32:44.986Z,40.10
2022-10-10T12:35:40.000Z,40.60
2022-10-10T12:38:19.869Z,40.00
2022-10-10T12:41:07.766Z,40.00
2022-10-10T12:43:48.607Z,38.70
2022-10-10T12:46:22.874Z,40.60
2022-10-10T12:49:05.048Z,38.80
2022-10-10T12:51:34.278Z,38.30
2022-10-10T12:54:04.865Z,38.60
2022-10-10T12:56:43.013Z,37.80
2022-10-10T12:59:27.644Z,38.10
2022-10-10T13:01:58.470Z,38.60
2022-10-10T13:04:26.261Z,38.30
2022-10-10T13:06:55.760Z,37.30
2022-10-10T13:09:24.909Z,37.00
2022-10-10T13:11:56.038Z,37.10
2022-10-10T13:14:23.631Z,37.50
2022-10-10T13:16:50.460Z,37.20
2022-10-10T13:19:19.334Z,36.50
2022-10-10T13:21:46.790Z,37.00
2022-10-10T13:24:16.785Z,36.70
2022-10-10T13:26:46.302Z,37.70
2022-10-10T13:29:23.496Z,37.40
2022-10-10T13:31:51.365Z,37.00
2022-10-10T13:34:26.400Z,37.40
2022-10-10T13:36:56.309Z,37.30
2022-10-10T13:39:24.334Z,37.20
2022-10-10T13:41:51.635Z,36.70
2022-10-10T13:44:24.819Z,38.10
2022-10-10T13:46:51.938Z,38.10
2022-10-10T13:49:24.538Z,39.10
2022-10-10T13:52:01.955Z,38.50
2022-10-10T13:54:40.044Z,39.00
2022-10-10T13:57:14.181Z,38.80
2022-10-10T13:59:43.290Z,38.80
2022-10-10T14:02:13.894Z,38.70
2022-10-10T14:04:47.065Z,38.60
2022-10-10T14:07:18.892Z,39.00
2022-10-10T14:09:53.516Z,39.00
2022-10-10T14:12:26.145Z,38.50
2022-10-10T14:14:56.082Z,38.40
2022-10-10T14:17:22.869Z,38.40
2022-10-10T14:19:50.415Z,39.00
2022-10-10T14:22:17.495Z,39.10
2022-10-10T14:24:44.740Z,39.20
2022-10-10T14:27:16.593Z,38.90
2022-10-10T14:29:43.458Z,38.90
2022-10-10T14:32:12.588Z,38.60
2022-10-10T14:34:39.817Z,38.60
2022-10-10T14:37:10.379Z,38.70
2022-10-10T14:39:37.219Z,38.40
2022-10-10T14:42:09.101Z,38.40
2022-10-10T14:44:35.890Z,38.40
2022-10-10T14:47:02.701Z,38.50
2022-10-10T14:49:30.968Z,38.20
2022-10-10T14:51:57.810Z,38.60
2022-10-10T14:54:24.663Z,38.60
2022-10-10T14:57:08.236Z,38.40
2022-10-10T14:59:47.377Z,38.30
2022-10-10T15:02:17.419Z,38.30
2022-10-10T15:04:45.884Z,37.30
2022-10-10T15:07:14.713Z,37.70
2022-10-10T15:09:56.430Z,36.90
2022-10-10T15:12:29.185Z,37.20
2022-10-10T15:14:56.246Z,35.90
2022-10-10T15:17:23.171Z,36.20
2022-10-10T15:19:51.761Z,36.60
2022-10-10T15:22:19.101Z,36.60
2022-10-10T15:24:46.410Z,37.00
2022-10-10T15:27:13.612Z,36.50
2022-10-10T15:29:40.502Z,37.00
2022-10-10T15:32:07.657Z,37.20
2022-10-10T15:34:34.739Z,37.60
2022-10-10T15:37:03.022Z,38.00
2022-10-10T15:39:30.082Z,37.70
2022-10-10T15:41:57.181Z,38.30
2022-10-10T15:44:24.051Z,38.40
2022-10-10T15:46:50.939Z,38.60
2022-10-10T15:49:17.903Z,38.80
2022-10-10T15:51:46.671Z,39.10
2022-10-10T15:54:15.162Z,39.20
2022-10-10T15:56:42.197Z,39.40
2022-10-10T15:59:10.497Z,39.80
2022-10-10T16:01:37.324Z,39.80
2022-10-10T16:04:05.230Z,39.90
2022-10-10T16:06:33.035Z,40.30
2022-10-10T16:09:23.649Z,40.00
2022-10-10T16:11:48.014Z,40.60
2022-10-10T16:14:14.919Z,40.70
2022-10-10T16:16:41.658Z,40.70
2022-10-10T16:19:08.473Z,40.40
2022-10-10T16:21:35.341Z,40.40
2022-10-10T16:24:02.142Z,40.50
2022-10-10T16:26:30.898Z,40.30
2022-10-10T16:28:59.496Z,39.90
2022-10-10T16:31:27.294Z,40.50
2022-10-10T16:33:55.064Z,40.90
2022-10-10T16:36:23.961Z,41.00
2022-10-10T16:38:51.151Z,40.90
2022-10-10T16:41:35.637Z,41.20
2022-10-10T16:44:07.479Z,41.30
2022-10-10T16:46:34.940Z,41.50
2022-10-10T16:49:01.688Z,41.50
2022-10-10T16:51:29.675Z,41.70
2022-10-10T16:54:00.080Z,42.10
2022-10-10T16:56:26.936Z,42.10
2022-10-10T16:58:53.717Z,42.40
2022-10-10T17:01:22.910Z,42.50
2022-10-10T17:03:50.760Z,42.60
2022-10-10T17:06:19.918Z,42.90
2022-10-10T17:08:47.897Z,43.00
2022-10-10T17:11:15.438Z,43.00
2022-10-10T17:13:42.361Z,43.00
2022-10-10T17:16:45.021Z,42.80
2022-10-10T17:18:59.794Z,42.70
2022-10-10T17:21:26.499Z,42.90
2022-10-10T17:23:53.284Z,42.90
2022-10-10T17:26:21.949Z,42.60
2022-10-10T17:28:48.863Z,42.80
2022-10-10T17:31:15.948Z,42.80
2022-10-10T17:33:43.748Z,43.10
2022-10-10T17:36:14.597Z,42.90
2022-10-10T17:38:44.019Z,42.90
2022-10-10T17:41:11.947Z,43.00
2022-10-10T17:43:38.855Z,43.30
2022-10-10T17:46:32.628Z,43.50
2022-10-10T17:48:54.251Z,43.50
2022-10-10T17:51:22.359Z,43.60
2022-10-10T17:53:49.591Z,43.80
2022-10-10T17:56:20.171Z,43.90
2022-10-10T17:58:48.145Z,43.90
2022-10-10T18:01:15.971Z,44.00
2022-10-10T18:03:42.960Z,44.10
2022-10-10T18:06:12.219Z,44.10
2022-10-10T18:08:40.283Z,44.10
2022-10-10T18:11:13.497Z,44.30
2022-10-10T18:13:40.792Z,44.40
2022-10-10T18:16:08.737Z,44.50
2022-10-10T18:18:35.806Z,44.60
2022-10-10T18:21:04.769Z,44.60
2022-10-10T18:23:32.255Z,44.70
2022-10-10T18:26:00.912Z,44.70
2022-10-10T18:28:30.037Z,44.80
2022-10-10T18:30:56.953Z,44.80
2022-10-10T18:33:23.735Z,45.00
2022-10-10T18:35:50.561Z,45.00
2022-10-10T18:38:17.295Z,45.10
2022-10-10T18:40:44.053Z,45.10
2022-10-10T18:43:12.184Z,45.10
2022-10-10T18:45:38.978Z,45.30
2022-10-10T18:48:06.280Z,45.30
2022-10-10T18:50:32.977Z,45.50
2022-10-10T18:52:59.678Z,45.60
2022-10-10T18:55:26.366Z,45.80
2022-10-10T18:57:53.095Z,46.00
2022-10-10T19:00:21.456Z,46.00
2022-10-10T19:02:48.175Z,46.00
2022-10-10T19:05:15.055Z,46.10
2022-10-10T19:07:41.812Z,46.00
2022-10-10T19:10:08.947Z,46.20
2022-10-10T19:12:35.670Z,46.10
2022-10-10T19:15:02.421Z,46.40
2022-10-10T19:17:30.490Z,46.70
2022-10-10T19:19:57.244Z,46.80
2022-10-10T19:22:24.030Z,47.20
2022-10-10T19:24:50.751Z,47.60
2022-10-10T19:27:17.537Z,48.00
2022-10-10T19:29:44.236Z,48.10
2022-10-10T19:32:11.047Z,48.40
2022-10-10T19:34:39.192Z,48.70
2022-10-10T19:37:05.964Z,48.80
2022-10-10T19:39:32.728Z,48.80
2022-10-10T19:41:59.425Z,49.20
2022-10-10T19:44:26.149Z,49.40
2022-10-10T19:46:53.899Z,49.60
2022-10-10T19:49:20.611Z,49.90
2022-10-10T19:51:48.641Z,50.20
2022-10-10T19:54:15.414Z,50.30
2022-10-10T19:56:42.145Z,50.40
2022-10-10T20:02:00.366Z,50.70
2022-10-10T20:07:20.508Z,50.90
2022-10-10T20:09:47.227Z,51.40
2022-10-10T20:12:14.392Z,51.60
2022-10-10T20:14:41.145Z,51.80
2022-10-10T20:17:07.990Z,52.00
2022-10-10T20:19:34.788Z,52.20
2022-10-10T20:22:01.499Z,52.20
2022-10-10T20:24:29.578Z,52.20
2022-10-10T20:26:56.347Z,52.40
2022-10-10T20:29:23.108Z,52.30
2022-10-10T20:31:49.850Z,52.40
2022-10-10T20:34:16.562Z,52.50
2022-10-10T20:36:43.315Z,53.00
2022-10-10T20:39:13.242Z,53.20
2022-10-10T20:41:42.345Z,53.70
2022-10-10T20:44:12.223Z,54.20
2022-10-10T20:46:41.298Z,54.40
2022-10-10T20:49:11.913Z,55.70
2022-10-10T20:51:39.133Z,55.60
2022-10-10T20:54:06.880Z,55.60
2022-10-10T20:56:35.008Z,55.60
2022-10-10T20:59:03.321Z,56.10
2022-10-10T21:01:30.808Z,56.60
2022-10-10T21:03:57.831Z,56.50
2022-10-10T21:06:26.614Z,56.70
2022-10-10T21:08:54.367Z,57.20
2022-10-10T21:11:22.315Z,56.60
2022-10-10T21:13:51.458Z,56.70
2022-10-10T21:16:20.186Z,56.60
2022-10-10T21:18:57.026Z,56.30
2022-10-10T21:21:25.467Z,56.60
2022-10-10T21:23:55.954Z,56.70
2022-10-10T21:26:24.961Z,56.80
2022-10-10T21:28:52.139Z,56.60
2022-10-10T21:31:23.417Z,56.30
2022-10-10T21:33:50.281Z,56.60
2022-10-10T21:36:18.746Z,56.70
2022-10-10T21:38:45.738Z,56.50
2022-10-10T21:41:14.255Z,56.80
2022-10-10T21:43:41.332Z,57.20
2022-10-10T21:46:11.662Z,57.40
2022-10-10T21:48:39.985Z,57.40
2022-10-10T21:51:06.833Z,57.30
2022-10-10T21:53:33.733Z,56.90
2022-10-10T21:56:04.723Z,56.80
2022-10-10T21:58:34.062Z,56.40
2022-10-10T22:01:07.287Z,55.90
2022-10-10T22:03:34.185Z,55.90
2022-10-10T22:06:04.201Z,56.00
2022-10-10T22:08:31.191Z,55.70
2022-10-10T22:11:00.448Z,55.50
2022-10-10T22:13:27.368Z,55.60
2022-10-10T22:15:54.351Z,55.50
2022-10-10T22:18:21.163Z,55.50
2022-10-10T22:20:47.974Z,55.40
2022-10-10T22:23:16.710Z,55.40
2022-10-10T22:25:43.917Z,55.00
2022-10-10T22:28:10.828Z,54.30
2022-10-10T22:30:37.809Z,54.00
2022-10-10T22:33:04.657Z,53.80
2022-10-10T22:35:32.124Z,53.70
2022-10-10T22:37:58.944Z,53.50
2022-10-10T22:40:27.337Z,53.50
2022-10-10T22:42:54.215Z,53.50
2022-10-10T22:45:21.948Z,53.40
2022-10-10T22:47:48.715Z,53.40
2022-10-10T22:50:15.512Z,53.30
2022-10-10T22:52:42.321Z,53.30
2022-10-10T22:55:12.234Z,53.20
2022-10-10T22:57:42.583Z,53.20
2022-10-10T23:00:10.803Z,53.30
2022-10-10T23:02:37.560Z,53.30
2022-10-10T23:05:05.195Z,53.50
2022-10-10T23:07:31.989Z,53.70
2022-10-10T23:09:58.779Z,53.60
2022-10-10T23:12:25.478Z,53.60
2022-10-10T23:14:53.564Z,53.50
2022-10-10T23:17:20.342Z,53.30
2022-10-10T23:19:47.139Z,53.30
2022-10-10T23:22:13.917Z,53.40
2022-10-10T23:24:40.851Z,53.40
2022-10-10T23:27:07.703Z,53.20
2022-10-10T23:29:34.575Z,53.00
2022-10-10T23:32:02.664Z,52.70
2022-10-10T23:34:29.462Z,52.70
2022-10-10T23:36:56.308Z,52.70
2022-10-10T23:39:23.064Z,52.50
2022-10-10T23:41:49.749Z,52.20
2022-10-10T23:44:16.581Z,52.20
2022-10-10T23:46:43.354Z,52.10
2022-10-10T23:49:11.553Z,52.00
2022-10-10T23:51:38.355Z,51.90
2022-10-10T23:54:05.205Z,51.50
2022-10-10T23:56:31.979Z,51.40
2022-10-10T23:58:58.745Z,51.00
